Airfield :
LOGIN :

Register | Disclaimer

   EN    FR    IT 

 










Legend :    VFR   Marginal VFR   IFR   Intensive IFR   Very Intensive IFR
Visi :
Ceiling :
>= 8 km
>= 3000ft
5 to 8 km
1000 to 3000 ft
1500m to 5 km
500 to 1000 ft
800 to 1500m
200 to 500 ft
< 800m
< 200 ft
Symbols :   Thunderstorms  Fog  Heavy snow  Heavy precipitations  Wind > 20 kt
SIGMETs :     Misc.  Thunderstorms  Icing  Turbulence  Mountain Waves  Volcanic Ashes






- Airport Elevation : 218 ft
- IATA code : LBG


LFPB - Paris / Le Bourget

CURRENT METAR :
  • 270500Z AUTO 19014KT 9000 BKN010 OVC014 09/08 Q1010 TEMPO 4000 RA BECMG 20015G25KT

EXPIRED METARs :
  • 270430Z AUTO 19011KT 9999 BKN010/// OVC015/// ///TCU 09/08 Q1010 TEMPO 4000 RA BKN007 BECMG 20015G25KT
  • 270400Z AUTO 19014KT 9999 -RA OVC013 09/08 Q1011 TEMPO 4000 RA BKN007 BECMG 20015G25KT
  • 270330Z AUTO 19013KT 9999 OVC013 09/08 Q1011 TEMPO 4000 RA BKN007 BECMG 20015G25KT
  • 270300Z AUTO 19013KT 9999 OVC013/// ///TCU 09/07 Q1011 TEMPO 4000 RA BKN007 BECMG 20015G25KT
  • 270230Z AUTO 18012KT 9999 -RA OVC012/// ///TCU 09/08 Q1012 TEMPO 4000 RA BKN007 BECMG 20015G25KT

TAF TAF LFPB
Valid from the 27 at 00:00 until the 28 at 00:00 UTC


262300Z 2700/2724 20015G25KT 9999 BKN014
PROB40
TEMPO 2700/2718 4000 RA BKN007
BECMG 2718/2720 BKN016
PROB40
TEMPO 2720/2724 3000 SHRA SCT012CB BKN015
ATIS : +33 1 48 62 43 92



MET'MAP, your aeronautical weather chart ! - Copyright ORBIFLY December 2007 - Disclaimer

ORBIFLY MET'MAP TEAM :

Programming & Development : Alexandra Zaïnal
Concept & original design : Baudouin d'Aumeries
Assistance for programming : Marc-Olivier Méhu
Technical & hardware support : Manuel Goepfert

Contact : metmap@orbifly.com




SOURCES & CREDITS :

   NOAA